Time,TemperatureF,DewpointF,PressureIn,WindDirection,WindDirectionDegrees,WindSpeedMPH,WindSpeedGustMPH,Humidity,HourlyPrecipIn,Conditions,Clouds,dailyrainin,SoftwareType,DateUTC
2013-06-23 00:00:00,79.5,76.3,30.07,SSE,150,2.0,7.0,90,0.00,,,0.00,WeatherDisplay:10.37,2013-06-23 04:00:00,
2013-06-23 00:10:00,79.3,75.8,30.07,SE,138,1.0,7.0,89,0.00,,,0.00,WeatherDisplay:10.37,2013-06-23 04:10:00,
2013-06-23 00:20:00,79.2,75.6,30.06,SE,131,2.0,8.0,89,0.00,,,0.00,WeatherDisplay:10.37,2013-06-23 04:20:00,
2013-06-23 00:30:00,79.1,75.6,30.07,SE,141,2.0,5.0,89,0.00,,,0.00,WeatherDisplay:10.37,2013-06-23 04:30:00,
2013-06-23 00:40:00,79.1,75.2,30.06,SE,138,1.0,5.0,88,0.00,,,0.00,WeatherDisplay:10.37,2013-06-23 04:40:00,
2013-06-23 00:50:00,79.1,74.9,30.06,SE,129,2.0,6.0,87,0.00,,,0.00,WeatherDisplay:10.37,2013-06-23 04:50:00,
2013-06-23 01:00:00,79.2,75.3,30.06,ESE,119,1.0,5.0,88,0.00,,,0.00,WeatherDisplay:10.37,2013-06-23 05:00:00,
2013-06-23 01:10:00,79.2,75.3,30.06,SE,126,1.0,7.0,88,0.00,,,0.00,WeatherDisplay:10.37,2013-06-23 05:10:00,
2013-06-23 01:20:00,79.3,75.1,30.06,SE,128,2.0,8.0,87,0.00,,,0.00,WeatherDisplay:10.37,2013-06-23 05:20:00,
2013-06-23 01:30:00,79.5,74.9,30.06,ESE,122,3.0,7.0,86,0.00,,,0.00,WeatherDisplay:10.37,2013-06-23 05:30:00,
2013-06-23 01:40:00,79.7,74.8,30.06,ESE,120,1.0,8.0,85,0.00,,,0.00,WeatherDisplay:10.37,2013-06-23 05:40:00,
2013-06-23 01:50:00,80.0,75.1,30.06,ESE,121,3.0,12.0,85,0.00,,,0.00,WeatherDisplay:10.37,2013-06-23 05:50:00,
2013-06-23 02:00:00,80.1,75.2,30.06,ESE,114,3.0,10.0,85,0.00,,,0.00,WeatherDisplay:10.37,2013-06-23 06:00:00,
2013-06-23 02:10:00,80.4,75.1,30.05,ESE,115,2.0,9.0,84,0.00,CLR,,0.00,WeatherDisplay:10.37,2013-06-23 06:10:00,
2013-06-23 02:20:00,80.3,74.7,30.05,ESE,115,3.0,8.0,83,0.00,CLR,,0.00,WeatherDisplay:10.37,2013-06-23 06:20:00,
2013-06-23 02:30:00,80.3,75.0,30.04,ESE,120,6.0,12.0,84,0.00,CLR,,0.00,WeatherDisplay:10.37,2013-06-23 06:30:00,
2013-06-23 02:40:00,80.2,75.3,30.04,East,97,2.0,8.0,85,0.00,,,0.00,WeatherDisplay:10.37,2013-06-23 06:40:00,
2013-06-23 02:50:00,79.8,75.3,30.04,ENE,66,1.0,5.0,86,0.00,,,0.00,WeatherDisplay:10.37,2013-06-23 06:50:00,
2013-06-23 03:00:00,79.3,75.1,30.04,ENE,78,2.0,5.0,87,0.00,,,0.00,WeatherDisplay:10.37,2013-06-23 07:00:00,
2013-06-23 03:10:00,78.9,75.0,30.04,ENE,77,1.0,6.0,88,0.00,,,0.00,WeatherDisplay:10.37,2013-06-23 07:10:00,
2013-06-23 03:20:00,78.4,74.5,30.04,East,80,1.0,5.0,88,0.00,,,0.00,WeatherDisplay:10.37,2013-06-23 07:20:00,
2013-06-23 03:30:00,78.2,74.4,30.04,East,92,1.0,6.0,88,0.00,,,0.00,WeatherDisplay:10.37,2013-06-23 07:30:00,
2013-06-23 03:40:00,78.0,74.2,30.04,East,87,0.0,3.0,88,0.00,,,0.00,WeatherDisplay:10.37,2013-06-23 07:40:00,
2013-06-23 03:50:00,77.8,74.0,30.04,East,86,2.0,6.0,88,0.00,,,0.00,WeatherDisplay:10.37,2013-06-23 07:50:00,
2013-06-23 04:00:00,77.7,74.2,30.04,East,84,1.0,5.0,89,0.00,,,0.00,WeatherDisplay:10.37,2013-06-23 08:00:00,
2013-06-23 04:10:00,77.6,74.1,30.04,East,80,2.0,7.0,89,0.00,,,0.00,WeatherDisplay:10.37,2013-06-23 08:10:00,
2013-06-23 04:20:00,77.5,74.0,30.04,East,81,2.0,6.0,89,0.00,,,0.00,WeatherDisplay:10.37,2013-06-23 08:20:00,
2013-06-23 04:30:00,77.3,73.8,30.04,East,82,1.0,6.0,89,0.00,,,0.00,WeatherDisplay:10.37,2013-06-23 08:30:00,
2013-06-23 04:40:00,77.2,74.0,30.04,East,87,2.0,7.0,90,0.00,,,0.00,WeatherDisplay:10.37,2013-06-23 08:40:00,
2013-06-23 04:50:00,77.1,73.9,30.04,East,88,2.0,5.0,90,0.00,,,0.00,WeatherDisplay:10.37,2013-06-23 08:50:00,
2013-06-23 05:00:00,77.1,73.9,30.04,ENE,74,0.0,3.0,90,0.00,,,0.00,WeatherDisplay:10.37,2013-06-23 09:00:00,
2013-06-23 05:10:00,77.0,73.9,30.04,East,86,1.0,5.0,90,0.00,,,0.00,WeatherDisplay:10.37,2013-06-23 09:10:00,
2013-06-23 05:20:00,77.0,73.8,30.04,East,79,2.0,6.0,90,0.00,,,0.00,WeatherDisplay:10.37,2013-06-23 09:20:00,
2013-06-23 05:30:00,77.0,74.2,30.03,ENE,68,1.0,5.0,91,0.00,,,0.00,WeatherDisplay:10.37,2013-06-23 09:30:00,
2013-06-23 05:40:00,77.0,74.2,30.04,ENE,78,1.0,6.0,91,0.00,,,0.00,WeatherDisplay:10.37,2013-06-23 09:40:00,
2013-06-23 05:50:00,77.0,74.2,30.04,East,82,2.0,6.0,91,0.00,,,0.00,WeatherDisplay:10.37,2013-06-23 09:50:00,
2013-06-23 06:00:00,77.1,74.2,30.03,ENE,68,2.0,6.0,91,0.00,,,0.00,WeatherDisplay:10.37,2013-06-23 10:00:00,
2013-06-23 06:10:00,77.1,74.3,30.04,ENE,71,2.0,7.0,91,0.00,,,0.00,WeatherDisplay:10.37,2013-06-23 10:10:00,
2013-06-23 06:20:00,77.1,74.3,30.04,ENE,75,3.0,7.0,91,0.00,,,0.00,WeatherDisplay:10.37,2013-06-23 10:20:00,
2013-06-23 06:30:00,77.2,74.7,30.04,ENE,78,1.0,6.0,92,0.00,,,0.00,WeatherDisplay:10.37,2013-06-23 10:30:00,
2013-06-23 06:40:00,77.2,74.7,30.04,East,79,5.0,7.0,92,0.00,,,0.00,WeatherDisplay:10.37,2013-06-23 10:40:00,
2013-06-23 06:50:00,77.2,74.7,30.04,East,85,1.0,6.0,92,0.00,,,0.00,WeatherDisplay:10.37,2013-06-23 10:50:00,
2013-06-23 07:00:00,77.3,74.8,30.04,East,83,2.0,8.0,92,0.00,,,0.00,WeatherDisplay:10.37,2013-06-23 11:00:00,
2013-06-23 07:10:00,77.5,75.3,30.05,East,88,1.0,6.0,93,0.00,,,0.00,WeatherDisplay:10.37,2013-06-23 11:10:00,
2013-06-23 07:20:00,77.7,75.5,30.06,East,84,1.0,7.0,93,0.00,,,0.00,WeatherDisplay:10.37,2013-06-23 11:20:00,
2013-06-23 07:30:00,77.9,75.4,30.05,ENE,76,1.0,7.0,92,0.00,,,0.00,WeatherDisplay:10.37,2013-06-23 11:30:00,
2013-06-23 07:40:00,78.3,75.5,30.06,East,82,2.0,7.0,91,0.00,,,0.00,WeatherDisplay:10.37,2013-06-23 11:40:00,
2013-06-23 07:50:00,78.7,75.5,30.06,ENE,78,2.0,7.0,90,0.00,,,0.00,WeatherDisplay:10.37,2013-06-23 11:50:00,
2013-06-23 08:00:00,79.2,75.6,30.06,East,85,2.0,7.0,89,0.00,,,0.00,WeatherDisplay:10.37,2013-06-23 12:00:00,
2013-06-23 08:10:00,79.7,75.4,30.07,East,85,5.0,7.0,87,0.00,,,0.00,WeatherDisplay:10.37,2013-06-23 12:10:00,
2013-06-23 08:20:00,80.1,75.5,30.07,East,85,3.0,8.0,86,0.00,,,0.00,WeatherDisplay:10.37,2013-06-23 12:20:00,
2013-06-23 08:30:00,80.6,76.1,30.07,East,79,5.0,7.0,86,0.00,,,0.00,WeatherDisplay:10.37,2013-06-23 12:30:00,
2013-06-23 08:40:00,81.2,76.2,30.08,East,79,2.0,5.0,85,0.00,,,0.00,WeatherDisplay:10.37,2013-06-23 12:40:00,
2013-06-23 08:50:00,81.8,76.1,30.07,East,88,3.0,7.0,83,0.00,CLR,,0.00,WeatherDisplay:10.37,2013-06-23 12:50:00,
2013-06-23 09:00:00,82.2,76.2,30.08,East,85,2.0,7.0,82,0.00,CLR,,0.00,WeatherDisplay:10.37,2013-06-23 13:00:00,
2013-06-23 09:10:00,82.7,76.6,30.08,East,91,2.0,8.0,82,0.00,CLR,,0.00,WeatherDisplay:10.37,2013-06-23 13:10:00,
2013-06-23 09:20:00,83.2,76.8,30.08,ESE,108,1.0,8.0,81,0.00,CLR,,0.00,WeatherDisplay:10.37,2013-06-23 13:20:00,
2013-06-23 09:30:00,84.0,77.5,30.08,ESE,112,2.0,9.0,81,0.00,CLR,,0.00,WeatherDisplay:10.37,2013-06-23 13:30:00,
2013-06-23 09:40:00,84.7,77.4,30.08,SE,129,2.0,7.0,79,0.00,CLR,,0.00,WeatherDisplay:10.37,2013-06-23 13:40:00,
2013-06-23 09:50:00,85.4,77.8,30.08,SE,127,3.0,7.0,78,0.00,CLR,,0.00,WeatherDisplay:10.37,2013-06-23 13:50:00,
2013-06-23 10:00:00,86.0,77.6,30.08,ESE,112,5.0,8.0,76,0.00,CLR,,0.00,WeatherDisplay:10.37,2013-06-23 14:00:00,
2013-06-23 10:10:00,86.5,77.2,30.08,ESE,119,5.0,8.0,74,0.00,CLR,,0.00,WeatherDisplay:10.37,2013-06-23 14:10:00,
2013-06-23 10:20:00,87.0,77.2,30.08,ESE,112,5.0,8.0,73,0.00,CLR,,0.00,WeatherDisplay:10.37,2013-06-23 14:20:00,
2013-06-23 10:30:00,87.5,77.7,30.08,ESE,110,2.0,8.0,73,0.00,CLR,,0.00,WeatherDisplay:10.37,2013-06-23 14:30:00,
2013-06-23 10:40:00,88.1,77.5,30.09,ESE,115,2.0,8.0,71,0.00,CLR,,0.00,WeatherDisplay:10.37,2013-06-23 14:40:00,
2013-06-23 10:50:00,88.4,77.4,30.09,ESE,121,3.0,8.0,70,0.00,CLR,,0.00,WeatherDisplay:10.37,2013-06-23 14:50:00,
2013-06-23 11:10:00,89.2,77.3,30.09,SE,126,2.0,9.0,68,0.00,CLR,,0.00,WeatherDisplay:10.37,2013-06-23 15:10:00,
2013-06-23 11:20:00,89.9,77.9,30.09,SE,137,2.0,7.0,68,0.00,CLR,,0.00,WeatherDisplay:10.37,2013-06-23 15:20:00,
2013-06-23 11:30:00,90.6,77.6,30.09,SE,137,2.0,7.0,66,0.00,CLR,,0.00,WeatherDisplay:10.37,2013-06-23 15:30:00,
2013-06-23 11:40:00,91.0,76.6,30.09,SE,127,2.0,7.0,63,0.00,CLR,,0.00,WeatherDisplay:10.37,2013-06-23 15:40:00,
2013-06-23 11:50:00,91.4,76.5,30.09,SE,124,2.0,5.0,62,0.00,CLR,,0.00,WeatherDisplay:10.37,2013-06-23 15:50:00,
2013-06-23 12:00:00,92.0,77.1,30.09,SE,132,2.0,7.0,62,0.00,CLR,,0.00,WeatherDisplay:10.37,2013-06-23 16:00:00,
2013-06-23 12:10:00,92.4,76.0,30.09,SE,140,2.0,5.0,59,0.00,CLR,,0.00,WeatherDisplay:10.37,2013-06-23 16:10:00,
2013-06-23 12:20:00,92.6,75.7,30.09,SSE,153,2.0,7.0,58,0.00,CLR,,0.00,WeatherDisplay:10.37,2013-06-23 16:20:00,
2013-06-23 12:30:00,93.1,76.1,30.09,SSE,153,2.0,6.0,58,0.00,CLR,,0.00,WeatherDisplay:10.37,2013-06-23 16:30:00,
2013-06-23 12:40:00,93.7,76.7,30.09,SE,143,1.0,5.0,58,0.00,CLR,,0.00,WeatherDisplay:10.37,2013-06-23 16:40:00,
2013-06-23 12:50:00,94.3,74.5,30.09,SSE,152,1.0,4.0,53,0.00,CLR,,0.00,WeatherDisplay:10.37,2013-06-23 16:50:00,
2013-06-23 13:10:00,95.0,76.3,30.09,SSE,163,3.0,5.0,55,0.00,CLR,,0.00,WeatherDisplay:10.37,2013-06-23 17:10:00,
2013-06-23 13:20:00,95.3,76.0,30.09,South,177,1.0,4.0,54,0.00,CLR,,0.00,WeatherDisplay:10.37,2013-06-23 17:20:00,
2013-06-23 13:30:00,95.3,74.3,30.09,South,182,1.0,5.0,51,0.00,CLR,,0.00,WeatherDisplay:10.37,2013-06-23 17:30:00,
2013-06-23 13:40:00,95.2,74.8,30.08,SSW,194,2.0,6.0,52,0.00,CLR,,0.00,WeatherDisplay:10.37,2013-06-23 17:40:00,
2013-06-23 13:50:00,95.5,75.6,30.07,WSW,247,1.0,7.0,53,0.00,CLR,,0.00,WeatherDisplay:10.37,2013-06-23 17:50:00,
2013-06-23 14:00:00,95.8,73.6,30.06,SW,221,2.0,6.0,49,0.00,CLR,,0.00,WeatherDisplay:10.37,2013-06-23 18:00:00,
2013-06-23 14:10:00,95.8,75.3,30.07,South,183,1.0,6.0,52,0.00,CLR,,0.00,WeatherDisplay:10.37,2013-06-23 18:10:00,
2013-06-23 14:20:00,96.2,73.9,30.07,South,175,2.0,7.0,49,0.00,CLR,,0.00,WeatherDisplay:10.37,2013-06-23 18:20:00,
2013-06-23 14:30:00,96.4,73.5,30.07,SSW,200,3.0,7.0,48,0.00,CLR,,0.00,WeatherDisplay:10.37,2013-06-23 18:30:00,
2013-06-23 14:40:00,95.5,74.5,30.07,South,191,1.0,8.0,51,0.00,CLR,,0.00,WeatherDisplay:10.37,2013-06-23 18:40:00,
2013-06-23 14:50:00,93.3,76.3,30.06,South,174,5.0,9.0,58,0.00,CLR,,0.00,WeatherDisplay:10.37,2013-06-23 18:50:00,
2013-06-23 15:00:00,89.7,76.4,30.06,SSE,155,7.0,14.0,65,0.00,CLR,,0.00,WeatherDisplay:10.37,2013-06-23 19:00:00,
2013-06-23 15:10:00,86.2,74.9,30.06,ESE,119,5.0,16.0,69,0.00,CLR,,0.00,WeatherDisplay:10.37,2013-06-23 19:10:00,
2013-06-23 15:20:00,84.7,74.7,30.07,ESE,111,5.0,10.0,72,0.00,CLR,,0.00,WeatherDisplay:10.37,2013-06-23 19:20:00,
2013-06-23 15:30:00,83.4,73.0,30.08,ESE,114,3.0,7.0,71,0.00,CLR,,0.00,WeatherDisplay:10.37,2013-06-23 19:30:00,
2013-06-23 15:40:00,82.7,70.6,30.08,ESE,117,1.0,6.0,67,0.00,CLR,,0.00,WeatherDisplay:10.37,2013-06-23 19:40:00,
2013-06-23 15:50:00,81.8,73.9,30.08,NE,35,2.0,8.0,77,0.00,CLR,,0.00,WeatherDisplay:10.37,2013-06-23 19:50:00,
2013-06-23 16:00:00,81.0,74.2,30.08,NE,38,2.0,5.0,80,0.01,RA,,0.01,WeatherDisplay:10.37,2013-06-23 20:00:00,
2013-06-23 16:10:00,79.9,74.3,30.07,NE,36,2.0,5.0,83,0.01,RA,,0.02,WeatherDisplay:10.37,2013-06-23 20:10:00,
2013-06-23 16:20:00,79.0,74.1,30.07,NNE,25,0.0,5.0,85,0.01,RA,,0.03,WeatherDisplay:10.37,2013-06-23 20:20:00,
2013-06-23 16:30:00,78.4,74.2,30.07,NNE,33,1.0,4.0,87,0.01,RA,,0.04,WeatherDisplay:10.37,2013-06-23 20:30:00,
2013-06-23 16:40:00,78.1,73.9,30.08,NNE,23,0.0,3.0,87,0.00,RA,,0.04,WeatherDisplay:10.37,2013-06-23 20:40:00,
2013-06-23 16:50:00,77.9,74.4,30.07,NNE,25,1.0,4.0,89,0.00,RA,,0.04,WeatherDisplay:10.37,2013-06-23 20:50:00,
2013-06-23 17:00:00,77.7,74.2,30.06,NNE,33,3.0,4.0,89,0.00,RA,,0.04,WeatherDisplay:10.37,2013-06-23 21:00:00,
2013-06-23 17:10:00,77.5,74.0,30.06,NE,38,0.0,4.0,89,0.00,RA,,0.04,WeatherDisplay:10.37,2013-06-23 21:10:00,
2013-06-23 17:20:00,77.8,74.6,30.06,NE,43,0.0,1.0,90,0.00,RA,,0.04,WeatherDisplay:10.37,2013-06-23 21:20:00,
2013-06-23 17:30:00,78.0,74.5,30.06,NE,43,0.0,2.0,89,0.00,RA,,0.04,WeatherDisplay:10.37,2013-06-23 21:30:00,
2013-06-23 17:40:00,78.3,74.8,30.05,NE,43,0.0,2.0,89,0.00,RA,,0.04,WeatherDisplay:10.37,2013-06-23 21:40:00,
2013-06-23 17:50:00,78.5,74.6,30.05,NE,43,0.0,1.0,88,0.00,RA,,0.04,WeatherDisplay:10.37,2013-06-23 21:50:00,
2013-06-23 18:00:00,78.9,74.7,30.05,NE,43,0.0,1.0,87,0.00,RA,,0.04,WeatherDisplay:10.37,2013-06-23 22:00:00,
2013-06-23 18:10:00,79.3,74.8,30.05,NE,43,0.0,1.0,86,0.00,RA,,0.04,WeatherDisplay:10.37,2013-06-23 22:10:00,
2013-06-23 18:20:00,79.8,75.2,30.06,NE,43,1.0,5.0,86,0.00,RA,,0.04,WeatherDisplay:10.37,2013-06-23 22:20:00,
2013-06-23 18:30:00,80.1,75.2,30.06,NE,39,2.0,4.0,85,0.00,RA,,0.04,WeatherDisplay:10.37,2013-06-23 22:30:00,
2013-06-23 18:40:00,80.3,75.0,30.06,NE,50,2.0,7.0,84,0.00,RA,,0.04,WeatherDisplay:10.37,2013-06-23 22:40:00,
2013-06-23 18:50:00,80.3,75.0,30.05,NE,39,1.0,6.0,84,0.00,RA,,0.04,WeatherDisplay:10.37,2013-06-23 22:50:00,
2013-06-23 19:00:00,80.4,74.8,30.06,ENE,73,2.0,7.0,83,0.00,RA,,0.04,WeatherDisplay:10.37,2013-06-23 23:00:00,
2013-06-23 19:10:00,80.5,75.2,30.06,NE,49,1.0,7.0,84,0.00,RA,,0.04,WeatherDisplay:10.37,2013-06-23 23:10:00,
2013-06-23 19:20:00,80.6,75.0,30.06,ENE,69,3.0,9.0,83,0.00,RA,,0.04,WeatherDisplay:10.37,2013-06-23 23:20:00,
2013-06-23 19:30:00,80.6,74.6,30.06,ENE,70,3.0,10.0,82,0.00,RA,,0.04,WeatherDisplay:10.37,2013-06-23 23:30:00,
2013-06-23 19:40:00,80.7,74.3,30.06,NE,41,1.0,7.0,81,0.00,RA,,0.04,WeatherDisplay:10.37,2013-06-23 23:40:00,
2013-06-23 19:50:00,80.7,74.7,30.07,ENE,60,0.0,5.0,82,0.00,RA,,0.04,WeatherDisplay:10.37,2013-06-23 23:50:00,
2013-06-23 20:00:00,80.8,74.8,30.07,ENE,77,1.0,3.0,82,0.00,RA,,0.04,WeatherDisplay:10.37,2013-06-24 00:00:00,
2013-06-23 20:10:00,80.9,74.9,30.07,ENE,68,0.0,3.0,82,0.00,RA,,0.04,WeatherDisplay:10.37,2013-06-24 00:10:00,
2013-06-23 20:20:00,80.9,75.2,30.07,ENE,67,1.0,3.0,83,0.00,RA,,0.04,WeatherDisplay:10.37,2013-06-24 00:20:00,
2013-06-23 20:30:00,80.8,75.2,30.07,ENE,67,1.0,3.0,83,0.00,RA,,0.04,WeatherDisplay:10.37,2013-06-24 00:30:00,
2013-06-23 20:40:00,80.7,74.7,30.07,East,88,0.0,5.0,82,0.00,RA,,0.04,WeatherDisplay:10.37,2013-06-24 00:40:00,
2013-06-23 20:50:00,80.5,74.5,30.07,East,84,0.0,3.0,82,0.00,RA,,0.04,WeatherDisplay:10.37,2013-06-24 00:50:00,
2013-06-23 21:00:00,80.4,74.4,30.08,East,94,3.0,6.0,82,0.00,RA,,0.04,WeatherDisplay:10.37,2013-06-24 01:00:00,
2013-06-23 21:10:00,80.3,74.3,30.08,East,99,2.0,7.0,82,0.00,RA,,0.04,WeatherDisplay:10.37,2013-06-24 01:10:00,
2013-06-23 21:20:00,80.1,74.1,30.08,East,89,1.0,7.0,82,0.00,RA,,0.04,WeatherDisplay:10.37,2013-06-24 01:20:00,
2013-06-23 21:30:00,80.0,74.4,30.08,East,91,2.0,6.0,83,0.00,RA,,0.04,WeatherDisplay:10.37,2013-06-24 01:30:00,
2013-06-23 21:40:00,79.9,73.9,30.09,East,97,2.0,7.0,82,0.00,RA,,0.04,WeatherDisplay:10.37,2013-06-24 01:40:00,
2013-06-23 21:50:00,79.8,73.8,30.09,East,85,1.0,5.0,82,0.00,RA,,0.04,WeatherDisplay:10.37,2013-06-24 01:50:00,
2013-06-23 22:00:00,79.5,73.2,30.08,East,89,2.0,7.0,81,0.00,RA,,0.04,WeatherDisplay:10.37,2013-06-24 02:00:00,
2013-06-23 22:10:00,79.4,73.4,30.09,East,94,1.0,5.0,82,0.00,RA,,0.04,WeatherDisplay:10.37,2013-06-24 02:10:00,
2013-06-23 22:20:00,79.4,73.8,30.09,ENE,76,1.0,5.0,83,0.00,RA,,0.04,WeatherDisplay:10.37,2013-06-24 02:20:00,
2013-06-23 22:30:00,79.3,73.7,30.09,East,86,0.0,3.0,83,0.00,RA,,0.04,WeatherDisplay:10.37,2013-06-24 02:30:00,
2013-06-23 22:40:00,79.2,73.6,30.09,East,79,1.0,6.0,83,0.00,RA,,0.04,WeatherDisplay:10.37,2013-06-24 02:40:00,
2013-06-23 22:50:00,79.1,73.5,30.10,East,84,1.0,5.0,83,0.00,RA,,0.04,WeatherDisplay:10.37,2013-06-24 02:50:00,
2013-06-23 23:00:00,79.1,73.5,30.10,East,98,2.0,7.0,83,0.00,RA,,0.04,WeatherDisplay:10.37,2013-06-24 03:00:00,
2013-06-23 23:10:00,79.1,73.5,30.10,East,81,5.0,9.0,83,0.00,RA,,0.04,WeatherDisplay:10.37,2013-06-24 03:10:00,
2013-06-23 23:20:00,79.1,73.5,30.10,East,90,2.0,9.0,83,0.00,RA,,0.04,WeatherDisplay:10.37,2013-06-24 03:20:00,
2013-06-23 23:30:00,79.2,73.6,30.11,East,92,1.0,5.0,83,0.00,RA,,0.04,WeatherDisplay:10.37,2013-06-24 03:30:00,
2013-06-23 23:40:00,79.2,73.6,30.11,East,82,3.0,8.0,83,0.00,RA,,0.04,WeatherDisplay:10.37,2013-06-24 03:40:00,
2013-06-23 23:50:00,79.1,73.5,30.11,East,83,3.0,8.0,83,0.00,RA,,0.04,WeatherDisplay:10.37,2013-06-24 03:50:00,